createdAt,value
2023-03-31T00:01:43.547Z,99320.63
2023-03-31T00:04:53.092Z,99337.38
2023-03-31T00:08:03.046Z,99340.31
2023-03-31T00:11:07.685Z,99348.72
2023-03-31T00:14:10.606Z,99339.78
2023-03-31T00:17:13.139Z,99338.72
2023-03-31T00:20:16.030Z,99324.22
2023-03-31T00:23:18.511Z,99332.97
2023-03-31T00:26:22.948Z,99342.25
2023-03-31T00:29:25.632Z,99337.75
2023-03-31T00:32:28.000Z,99341.28
2023-03-31T00:35:30.285Z,99344.53
2023-03-31T00:38:33.651Z,99341.78
2023-03-31T00:41:37.748Z,99331.88
2023-03-31T00:44:42.204Z,99333.06
2023-03-31T00:47:47.082Z,99331.66
2023-03-31T00:50:55.444Z,99328.03
2023-03-31T00:53:59.964Z,99338.31
2023-03-31T00:57:03.763Z,99333.84
2023-03-31T01:00:15.749Z,99317.59
2023-03-31T01:03:18.715Z,99325.66
2023-03-31T01:06:21.121Z,99314.84
2023-03-31T01:09:25.104Z,99310.50
2023-03-31T01:12:27.972Z,99316.19
2023-03-31T01:15:30.401Z,99314.72
2023-03-31T01:18:36.290Z,99299.06
2023-03-31T01:21:38.673Z,99310.59
2023-03-31T01:24:47.490Z,99300.81
2023-03-31T01:28:18.453Z,99304.06
2023-03-31T01:31:32.610Z,99313.84
2023-03-31T01:34:53.353Z,99318.47
2023-03-31T01:37:56.498Z,99308.03
2023-03-31T01:41:12.214Z,99318.09
2023-03-31T01:44:38.845Z,99309.66
2023-03-31T01:47:50.894Z,99299.81
2023-03-31T01:51:06.665Z,99298.81
2023-03-31T01:54:22.351Z,99300.53
2023-03-31T01:57:36.181Z,99293.44
2023-03-31T02:00:43.261Z,99299.22
2023-03-31T02:04:21.991Z,99295.75
2023-03-31T02:07:32.379Z,99291.03
2023-03-31T02:10:35.695Z,99289.59
2023-03-31T02:13:41.586Z,99288.84
2023-03-31T02:16:47.758Z,99292.25
2023-03-31T02:19:52.770Z,99298.94
2023-03-31T02:22:56.963Z,99283.44
2023-03-31T02:26:25.585Z,99297.53
2023-03-31T02:29:28.242Z,99278.31
2023-03-31T02:32:42.541Z,99304.16
2023-03-31T02:35:45.085Z,99305.78
2023-03-31T02:38:52.435Z,99297.63
2023-03-31T02:41:55.612Z,99300.59
2023-03-31T02:45:28.613Z,99298.94
2023-03-31T02:48:34.781Z,99304.66
2023-03-31T02:52:14.724Z,99302.47
2023-03-31T02:55:39.056Z,99297.34
2023-03-31T02:58:49.681Z,99289.94
2023-03-31T03:01:57.975Z,99292.56
2023-03-31T03:05:09.460Z,99294.22
2023-03-31T03:08:28.419Z,99299.66
2023-03-31T03:11:33.748Z,99289.06
2023-03-31T03:14:36.321Z,99288.78
2023-03-31T03:18:05.003Z,99289.19
2023-03-31T03:21:07.446Z,99285.28
2023-03-31T03:24:09.891Z,99288.19
2023-03-31T03:27:12.237Z,99284.75
2023-03-31T03:30:15.462Z,99283.09
2023-03-31T03:33:17.763Z,99298.38
2023-03-31T03:36:20.798Z,99287.69
2023-03-31T03:39:23.225Z,99287.53
2023-03-31T03:42:26.026Z,99286.28
2023-03-31T03:45:28.321Z,99279.78
2023-03-31T03:48:30.808Z,99273.63
2023-03-31T03:51:33.174Z,99279.44
2023-03-31T03:54:35.956Z,99278.31
2023-03-31T03:57:38.255Z,99277.53
2023-03-31T04:00:40.912Z,99251.72
2023-03-31T04:03:43.398Z,99280.31
2023-03-31T04:06:45.937Z,99292.03
2023-03-31T04:09:48.433Z,99283.44
2023-03-31T04:12:51.105Z,99264.06
2023-03-31T04:15:53.600Z,99265.72
2023-03-31T04:18:59.859Z,99258.25
2023-03-31T04:22:03.285Z,99265.50
2023-03-31T04:25:10.652Z,99264.47
2023-03-31T04:28:14.818Z,99259.31
2023-03-31T04:31:25.656Z,99255.00
2023-03-31T04:34:35.391Z,99265.28
2023-03-31T04:37:39.119Z,99258.09
2023-03-31T04:40:41.689Z,99255.06
2023-03-31T04:43:44.275Z,99255.59
2023-03-31T04:46:46.894Z,99243.13
2023-03-31T04:49:49.384Z,99239.84
2023-03-31T04:52:51.950Z,99235.47
2023-03-31T04:55:54.318Z,99231.09
2023-03-31T04:58:56.765Z,99223.00
2023-03-31T05:01:59.170Z,99231.47
2023-03-31T05:05:01.660Z,99234.28
2023-03-31T05:08:04.492Z,99226.50
2023-03-31T05:11:07.410Z,99224.66
2023-03-31T05:14:10.003Z,99233.75
2023-03-31T05:17:12.393Z,99240.56
2023-03-31T05:20:14.852Z,99239.09
2023-03-31T05:23:17.091Z,99241.69
2023-03-31T05:26:19.734Z,99250.25
2023-03-31T05:29:22.785Z,99220.56
2023-03-31T05:32:26.659Z,99232.25
2023-03-31T05:35:30.146Z,99236.28
2023-03-31T05:38:34.690Z,99235.19
2023-03-31T05:41:37.604Z,99227.66
2023-03-31T05:44:39.952Z,99230.56
2023-03-31T05:47:42.349Z,99234.03
2023-03-31T05:50:44.798Z,99222.72
2023-03-31T05:53:47.530Z,99237.09
2023-03-31T05:56:50.059Z,99230.28
2023-03-31T05:59:52.876Z,99225.13
2023-03-31T06:02:55.484Z,99220.78
2023-03-31T06:05:58.829Z,99222.25
2023-03-31T06:09:01.776Z,99221.28
2023-03-31T06:12:04.710Z,99223.50
2023-03-31T06:15:07.841Z,99219.97
2023-03-31T06:18:11.436Z,99214.84
2023-03-31T06:21:17.170Z,99203.09
2023-03-31T06:24:19.824Z,99203.56
2023-03-31T06:27:22.147Z,99212.63
2023-03-31T06:30:24.586Z,99211.78
2023-03-31T06:33:27.364Z,99209.41
2023-03-31T06:36:30.165Z,99209.06
2023-03-31T06:39:32.750Z,99207.28
2023-03-31T06:42:35.481Z,99207.59
2023-03-31T06:45:38.586Z,99206.53
2023-03-31T06:48:41.543Z,99201.09
2023-03-31T06:51:44.101Z,99190.09
2023-03-31T06:54:46.959Z,99181.63
2023-03-31T06:57:49.503Z,99193.31
2023-03-31T07:00:53.062Z,99195.16
2023-03-31T07:03:55.630Z,99183.88
2023-03-31T07:06:59.823Z,99194.47
2023-03-31T07:10:02.349Z,99183.47
2023-03-31T07:13:05.784Z,99196.78
2023-03-31T07:16:10.126Z,99207.44
2023-03-31T07:19:12.948Z,99200.03
2023-03-31T07:22:15.968Z,99202.69
2023-03-31T07:25:18.763Z,99200.50
2023-03-31T07:28:21.258Z,99190.44
2023-03-31T07:31:25.193Z,99205.06
2023-03-31T07:34:27.867Z,99188.78
2023-03-31T07:37:36.296Z,99189.31
2023-03-31T07:40:39.697Z,99191.09
2023-03-31T07:43:42.796Z,99193.22
2023-03-31T07:46:45.435Z,99186.16
2023-03-31T07:49:48.490Z,99185.19
2023-03-31T07:52:52.166Z,99179.69
2023-03-31T07:55:54.736Z,99179.69
2023-03-31T07:58:57.919Z,99177.47
2023-03-31T08:02:00.881Z,99167.72
2023-03-31T08:05:03.735Z,99178.66
2023-03-31T08:08:06.276Z,99163.00
2023-03-31T08:11:08.774Z,99169.78
2023-03-31T08:14:11.441Z,99163.34
2023-03-31T08:17:14.066Z,99150.50
2023-03-31T08:20:17.041Z,99145.78
2023-03-31T08:23:19.567Z,99149.53
2023-03-31T08:26:24.360Z,99146.88
2023-03-31T08:29:26.774Z,99152.66
2023-03-31T08:32:29.240Z,99149.31
2023-03-31T08:35:31.813Z,99140.84
2023-03-31T08:38:34.141Z,99145.00
2023-03-31T08:41:45.598Z,99140.66
2023-03-31T08:45:24.441Z,99143.56
2023-03-31T08:48:28.143Z,99141.47
2023-03-31T08:51:38.970Z,99139.03
2023-03-31T08:54:43.422Z,99130.63
2023-03-31T08:57:59.976Z,99124.13
2023-03-31T09:01:23.257Z,99119.28
2023-03-31T09:04:33.168Z,99127.28
2023-03-31T09:08:37.283Z,99130.75
2023-03-31T09:11:47.901Z,99120.09
2023-03-31T09:14:50.253Z,99118.22
2023-03-31T09:17:55.205Z,99110.13
2023-03-31T09:21:19.940Z,99122.31
2023-03-31T09:24:32.203Z,99115.09
2023-03-31T09:27:37.895Z,99114.78
2023-03-31T09:30:42.842Z,99111.72
2023-03-31T09:33:48.837Z,99117.66
2023-03-31T09:36:51.154Z,99102.00
2023-03-31T09:39:53.632Z,99098.31
2023-03-31T09:43:08.469Z,99100.88
2023-03-31T09:46:18.738Z,99100.88
2023-03-31T09:49:23.621Z,99100.72
2023-03-31T09:52:32.803Z,99105.00
2023-03-31T09:55:45.676Z,99097.78
2023-03-31T09:58:48.874Z,99094.19
2023-03-31T10:01:53.891Z,99096.47
2023-03-31T10:04:56.371Z,99095.66
2023-03-31T10:08:20.167Z,99092.34
2023-03-31T10:11:23.432Z,99088.41
2023-03-31T10:14:33.343Z,99089.56
2023-03-31T10:17:47.117Z,99079.66
2023-03-31T10:20:59.253Z,99080.84
2023-03-31T10:24:02.764Z,99073.09
2023-03-31T10:27:06.422Z,99079.28
2023-03-31T10:30:13.460Z,99084.03
2023-03-31T10:33:23.118Z,99064.81
2023-03-31T10:36:30.188Z,99068.97
2023-03-31T10:39:33.613Z,99073.13
2023-03-31T10:42:36.759Z,99075.56
2023-03-31T10:45:43.043Z,99074.09
2023-03-31T10:48:46.056Z,99057.75
2023-03-31T10:51:56.476Z,99065.25
2023-03-31T10:55:01.675Z,99054.28
2023-03-31T10:58:13.943Z,99050.38
2023-03-31T11:01:26.449Z,99044.47
2023-03-31T11:04:40.916Z,99048.13
2023-03-31T11:07:55.398Z,99049.78
2023-03-31T11:11:00.672Z,99043.13
2023-03-31T11:14:10.807Z,99047.78
2023-03-31T11:17:27.943Z,99041.28
2023-03-31T11:21:01.064Z,99041.34
2023-03-31T11:24:28.055Z,99034.94
2023-03-31T11:27:39.161Z,99027.38
2023-03-31T11:30:52.205Z,99032.91
2023-03-31T11:34:30.165Z,99029.53
2023-03-31T11:37:45.887Z,99024.97
2023-03-31T11:40:50.870Z,99023.22
2023-03-31T11:43:55.593Z,99013.88
2023-03-31T11:47:02.612Z,99018.00
2023-03-31T11:50:15.225Z,99009.69
2023-03-31T11:53:24.488Z,99007.44
2023-03-31T11:56:34.240Z,98999.19
2023-03-31T11:59:37.687Z,99007.84
2023-03-31T12:02:45.785Z,98993.81
2023-03-31T12:05:56.479Z,98987.38
2023-03-31T12:09:32.674Z,98987.97
2023-03-31T12:12:42.974Z,98978.69
2023-03-31T12:15:51.859Z,98976.16
2023-03-31T12:19:06.095Z,98977.53
2023-03-31T12:22:12.959Z,98967.38
2023-03-31T12:25:16.760Z,98966.97
2023-03-31T12:28:19.915Z,98954.84
2023-03-31T12:31:24.412Z,98953.25
2023-03-31T12:34:27.840Z,98944.75
2023-03-31T12:37:30.137Z,98946.03
2023-03-31T12:40:58.443Z,98941.75
2023-03-31T12:44:36.948Z,98936.44
2023-03-31T12:48:17.769Z,98946.31
2023-03-31T12:51:38.472Z,98942.72
2023-03-31T12:55:06.116Z,98942.03
2023-03-31T12:58:41.917Z,98957.16
2023-03-31T13:02:07.397Z,98933.88
2023-03-31T13:05:37.940Z,98938.69
2023-03-31T13:08:57.070Z,98927.94
2023-03-31T13:11:59.653Z,98920.81
2023-03-31T13:15:05.714Z,98926.06
2023-03-31T13:18:08.566Z,98922.09
2023-03-31T13:21:12.410Z,98913.31
2023-03-31T13:24:15.816Z,98907.28
2023-03-31T13:27:36.479Z,98896.22
2023-03-31T13:30:41.596Z,98896.16
2023-03-31T13:33:57.479Z,98901.97
2023-03-31T13:37:27.955Z,98886.81
2023-03-31T13:40:45.550Z,98887.25
2023-03-31T13:44:05.880Z,98882.47
2023-03-31T13:47:20.332Z,98881.63
2023-03-31T13:50:51.146Z,98871.00
2023-03-31T13:54:17.587Z,98879.25
2023-03-31T13:57:50.433Z,98871.69
2023-03-31T14:01:05.701Z,98871.16
2023-03-31T14:04:14.459Z,98868.47
2023-03-31T14:07:23.235Z,98871.53
2023-03-31T14:10:35.329Z,98863.84
2023-03-31T14:13:37.782Z,98854.69
2023-03-31T14:17:01.683Z,98839.34
2023-03-31T14:20:08.536Z,98844.09
2023-03-31T14:23:24.510Z,98851.16
2023-03-31T14:26:50.018Z,98854.19
2023-03-31T14:30:01.472Z,98848.19
2023-03-31T14:33:42.768Z,98841.53
2023-03-31T14:37:11.584Z,98830.19
2023-03-31T14:40:18.223Z,98813.44
2023-03-31T14:43:26.744Z,98823.44
2023-03-31T14:46:35.154Z,98810.88
2023-03-31T14:49:39.740Z,98811.09
2023-03-31T14:52:52.578Z,98804.59
2023-03-31T14:56:06.736Z,98801.22
2023-03-31T14:59:09.186Z,98797.47
2023-03-31T15:02:17.981Z,98784.66
2023-03-31T15:05:34.653Z,98789.03
2023-03-31T15:08:38.375Z,98786.47
2023-03-31T15:11:40.966Z,98790.81
2023-03-31T15:14:49.693Z,98793.16
2023-03-31T15:17:52.743Z,98786.97
2023-03-31T15:20:55.547Z,98779.13
2023-03-31T15:23:58.697Z,98786.91
2023-03-31T15:27:36.912Z,98789.16
2023-03-31T15:30:39.944Z,98786.09
2023-03-31T15:33:42.810Z,98787.00
2023-03-31T15:36:45.324Z,98772.94
2023-03-31T15:39:48.841Z,98775.34
2023-03-31T15:43:06.192Z,98780.00
2023-03-31T15:46:12.371Z,98773.66
2023-03-31T15:49:21.939Z,98766.75
2023-03-31T15:52:34.025Z,98761.47
2023-03-31T15:58:59.328Z,98760.59
2023-03-31T16:02:03.821Z,98759.59
2023-03-31T16:05:13.922Z,98760.47
2023-03-31T16:08:42.790Z,98746.28
2023-03-31T16:12:05.877Z,98754.72
2023-03-31T16:15:13.451Z,98747.44
2023-03-31T16:18:18.593Z,98757.16
2023-03-31T16:21:23.870Z,98742.31
2023-03-31T16:24:32.343Z,98751.81
2023-03-31T16:27:40.534Z,98747.78
2023-03-31T16:30:44.898Z,98755.38
2023-03-31T16:33:54.202Z,98752.16
2023-03-31T16:36:56.483Z,98746.22
2023-03-31T16:39:58.957Z,98740.94
2023-03-31T16:43:16.557Z,98747.16
2023-03-31T16:46:19.581Z,98735.38
2023-03-31T16:49:22.052Z,98747.97
2023-03-31T16:52:25.073Z,98740.22
2023-03-31T16:55:27.773Z,98743.78
2023-03-31T16:58:30.504Z,98746.25
2023-03-31T17:01:33.017Z,98736.84
2023-03-31T17:04:35.589Z,98739.50
2023-03-31T17:07:37.931Z,98734.22
2023-03-31T17:10:41.015Z,98733.06
2023-03-31T17:13:45.041Z,98737.84
2023-03-31T17:20:11.664Z,98728.91
2023-03-31T17:23:15.177Z,98737.50
2023-03-31T17:26:18.582Z,98733.47
2023-03-31T17:29:21.227Z,98742.44
2023-03-31T17:32:24.139Z,98727.91
2023-03-31T17:35:27.581Z,98736.22
2023-03-31T17:38:30.118Z,98735.75
2023-03-31T17:41:33.250Z,98727.25
2023-03-31T17:44:35.651Z,98722.13
2023-03-31T17:47:38.309Z,98736.09
2023-03-31T17:50:41.289Z,98727.56
2023-03-31T17:53:45.328Z,98736.38
2023-03-31T17:56:51.040Z,98724.53
2023-03-31T17:59:53.512Z,98737.34
2023-03-31T18:02:56.115Z,98729.97
2023-03-31T18:06:04.926Z,98726.59
2023-03-31T18:09:07.377Z,98721.16
2023-03-31T18:12:09.895Z,98734.00
2023-03-31T18:15:13.052Z,98729.84
2023-03-31T18:18:15.853Z,98734.13
2023-03-31T18:21:18.233Z,98743.25
2023-03-31T18:24:20.836Z,98743.94
2023-03-31T18:27:25.001Z,98735.75
2023-03-31T18:30:28.096Z,98731.56
2023-03-31T18:33:30.793Z,98736.72
2023-03-31T18:36:33.387Z,98720.50
2023-03-31T18:39:35.966Z,98730.13
2023-03-31T18:42:38.345Z,98722.53
2023-03-31T18:45:40.881Z,98727.88
2023-03-31T18:48:43.346Z,98724.97
2023-03-31T18:51:45.723Z,98724.06
2023-03-31T18:54:48.515Z,98718.13
2023-03-31T18:57:51.315Z,98726.59
2023-03-31T19:00:53.687Z,98716.78
2023-03-31T19:03:56.527Z,98717.72
2023-03-31T19:06:58.957Z,98720.75
2023-03-31T19:10:01.545Z,98713.22
2023-03-31T19:13:04.409Z,98708.03
2023-03-31T19:16:07.190Z,98713.06
2023-03-31T19:19:10.343Z,98715.22
2023-03-31T19:22:12.596Z,98707.34
2023-03-31T19:25:14.926Z,98709.88
2023-03-31T19:28:17.280Z,98708.75
2023-03-31T19:31:20.155Z,98703.63
2023-03-31T19:34:22.913Z,98690.28
2023-03-31T19:37:25.877Z,98691.00
2023-03-31T19:40:28.261Z,98698.84
2023-03-31T19:43:30.971Z,98695.78
2023-03-31T19:46:33.562Z,98693.28
2023-03-31T19:49:36.398Z,98695.34
2023-03-31T19:52:38.720Z,98667.63
2023-03-31T19:55:42.279Z,98690.34
2023-03-31T19:58:44.906Z,98682.34
2023-03-31T20:01:48.625Z,98680.75
2023-03-31T20:04:51.740Z,98683.75
2023-03-31T20:07:54.310Z,98647.25
2023-03-31T20:11:07.434Z,98677.72
2023-03-31T20:14:10.856Z,98677.66
2023-03-31T20:17:13.184Z,98672.91
2023-03-31T20:20:15.620Z,98674.00
2023-03-31T20:23:17.986Z,98668.09
2023-03-31T20:26:22.605Z,98672.91
2023-03-31T20:29:24.965Z,98666.78
2023-03-31T20:32:27.909Z,98673.88
2023-03-31T20:35:30.483Z,98675.97
2023-03-31T20:38:34.241Z,98660.59
2023-03-31T20:41:37.625Z,98667.63
2023-03-31T20:44:39.951Z,98673.72
2023-03-31T20:47:42.311Z,98670.69
2023-03-31T20:50:45.113Z,98662.97
2023-03-31T20:53:49.462Z,98662.34
2023-03-31T20:56:51.968Z,98647.25
2023-03-31T20:59:54.797Z,98668.06
2023-03-31T21:02:57.509Z,98656.66
2023-03-31T21:06:04.295Z,98660.63
2023-03-31T21:09:06.957Z,98663.84
2023-03-31T21:12:09.749Z,98659.53
2023-03-31T21:15:12.892Z,98660.03
2023-03-31T21:18:16.846Z,98659.25
2023-03-31T21:21:19.770Z,98655.59
2023-03-31T21:24:22.596Z,98665.38
2023-03-31T21:27:24.955Z,98658.47
2023-03-31T21:30:27.454Z,98657.56
2023-03-31T21:33:30.597Z,98656.81
2023-03-31T21:36:33.325Z,98657.69
2023-03-31T21:39:35.815Z,98647.75
2023-03-31T21:42:38.228Z,98652.09
2023-03-31T21:45:40.931Z,98641.22
2023-03-31T21:48:43.380Z,98645.97
2023-03-31T21:51:45.704Z,98653.53
2023-03-31T21:54:47.970Z,98652.88
2023-03-31T21:57:50.341Z,98642.28
2023-03-31T22:00:53.610Z,98648.91
2023-03-31T22:03:55.983Z,98649.50
2023-03-31T22:06:58.515Z,98652.69
2023-03-31T22:10:00.913Z,98637.88
2023-03-31T22:13:03.294Z,98645.66
2023-03-31T22:16:06.740Z,98639.06
2023-03-31T22:19:13.055Z,98644.91
2023-03-31T22:22:15.846Z,98640.75
2023-03-31T22:25:18.236Z,98639.72
2023-03-31T22:28:20.927Z,98641.66
2023-03-31T22:31:23.775Z,98626.47
2023-03-31T22:34:26.301Z,98630.53
2023-03-31T22:37:28.587Z,98647.22
2023-03-31T22:40:31.128Z,98633.25
2023-03-31T22:43:34.151Z,98631.72
2023-03-31T22:46:37.562Z,98635.53
2023-03-31T22:49:39.957Z,98628.31
2023-03-31T22:52:42.204Z,98617.75
2023-03-31T22:55:53.936Z,98633.44
2023-03-31T22:58:58.010Z,98622.91
2023-03-31T23:02:00.765Z,98623.38
2023-03-31T23:05:03.188Z,98625.09
2023-03-31T23:08:05.559Z,98621.22
2023-03-31T23:11:11.065Z,98626.41
2023-03-31T23:14:14.160Z,98628.69
2023-03-31T23:17:16.545Z,98630.63
2023-03-31T23:20:18.905Z,98585.28
2023-03-31T23:23:21.292Z,98620.72
2023-03-31T23:26:25.649Z,98612.34
2023-03-31T23:29:28.204Z,98609.63
2023-03-31T23:32:30.581Z,98605.28
2023-03-31T23:35:33.205Z,98595.66
2023-03-31T23:38:36.279Z,98617.78
2023-03-31T23:41:38.810Z,98612.28
2023-03-31T23:44:41.519Z,98604.84
2023-03-31T23:47:43.886Z,98613.59
2023-03-31T23:50:46.242Z,98619.03
2023-03-31T23:53:48.614Z,98615.91
2023-03-31T23:56:51.446Z,98609.78
2023-03-31T23:59:54.092Z,98609.34
